Terminal Aerodrome Forecast
Issued by NWS

Home | Current Version | Previous Version | Text Only | Print | Product List | Glossary On
Versions: 1 2 3 4 5 6 7 8 9 10 11 12
981
FTUS46 KSTO 192320
TAFSCK
TAF
KSCK 192320Z 2000/2024 32011G17KT P6SM FEW100
     FM200200 30006KT P6SM FEW100
     FM201900 VRB04KT P6SM SCT200=

USA.gov is the U.S. government's official web portal to all federal, state and local government web resources and services.